sensor_id;sensor_type;location;lat;lon;timestamp;pressure;altitude;pressure_sealevel;temperature;humidity
11041;BME280;5573;49.592;8.662;2023-04-09T00:02:25;100645.50;;;8.46;100.00
11041;BME280;5573;49.592;8.662;2023-04-09T00:04:53;100648.22;;;8.46;98.89
11041;BME280;5573;49.592;8.662;2023-04-09T00:07:21;100649.94;;;8.51;100.00
11041;BME280;5573;49.592;8.662;2023-04-09T00:09:49;100644.34;;;8.47;100.00
11041;BME280;5573;49.592;8.662;2023-04-09T00:12:16;100635.22;;;8.43;100.00
11041;BME280;5573;49.592;8.662;2023-04-09T00:14:44;100641.69;;;8.39;100.00
11041;BME280;5573;49.592;8.662;2023-04-09T00:17:12;100634.78;;;8.41;100.00
11041;BME280;5573;49.592;8.662;2023-04-09T00:19:41;100639.44;;;8.41;100.00
11041;BME280;5573;49.592;8.662;2023-04-09T00:22:09;100632.13;;;8.45;99.04
11041;BME280;5573;49.592;8.662;2023-04-09T00:24:36;100628.09;;;8.54;99.30
11041;BME280;5573;49.592;8.662;2023-04-09T00:27:04;100633.34;;;8.60;100.00
11041;BME280;5573;49.592;8.662;2023-04-09T00:29:32;100637.34;;;8.62;100.00
11041;BME280;5573;49.592;8.662;2023-04-09T00:32:00;100622.31;;;8.44;99.64
11041;BME280;5573;49.592;8.662;2023-04-09T00:34:28;100627.53;;;8.49;97.99
11041;BME280;5573;49.592;8.662;2023-04-09T00:36:57;100619.19;;;8.45;97.33
11041;BME280;5573;49.592;8.662;2023-04-09T00:39:25;100621.16;;;8.45;99.13
11041;BME280;5573;49.592;8.662;2023-04-09T00:41:56;100617.94;;;8.55;98.53
11041;BME280;5573;49.592;8.662;2023-04-09T00:44:24;100624.91;;;8.52;97.25
11041;BME280;5573;49.592;8.662;2023-04-09T00:46:53;100621.56;;;8.59;96.61
11041;BME280;5573;49.592;8.662;2023-04-09T00:49:21;100622.03;;;8.61;96.71
11041;BME280;5573;49.592;8.662;2023-04-09T00:51:50;100620.44;;;8.60;96.97
11041;BME280;5573;49.592;8.662;2023-04-09T00:54:19;100624.66;;;8.58;98.38
11041;BME280;5573;49.592;8.662;2023-04-09T00:56:46;100626.59;;;8.57;97.81
11041;BME280;5573;49.592;8.662;2023-04-09T00:59:14;100631.88;;;8.62;98.57
11041;BME280;5573;49.592;8.662;2023-04-09T01:01:43;100631.03;;;8.62;96.33
11041;BME280;5573;49.592;8.662;2023-04-09T01:04:11;100635.88;;;8.52;92.96
11041;BME280;5573;49.592;8.662;2023-04-09T01:06:44;100637.47;;;8.53;92.65
11041;BME280;5573;49.592;8.662;2023-04-09T01:09:23;100621.75;;;8.66;90.12
11041;BME280;5573;49.592;8.662;2023-04-09T01:12:01;100630.44;;;8.68;93.86
11041;BME280;5573;49.592;8.662;2023-04-09T01:14:36;100632.28;;;8.64;100.00
11041;BME280;5573;49.592;8.662;2023-04-09T01:17:14;100632.84;;;8.42;95.24
11041;BME280;5573;49.592;8.662;2023-04-09T01:19:46;100635.53;;;8.54;93.81
11041;BME280;5573;49.592;8.662;2023-04-09T01:22:27;100620.47;;;8.48;98.38
11041;BME280;5573;49.592;8.662;2023-04-09T01:25:03;100619.19;;;8.45;100.00
11041;BME280;5573;49.592;8.662;2023-04-09T01:27:46;100619.22;;;8.33;100.00
11041;BME280;5573;49.592;8.662;2023-04-09T01:30:19;100620.03;;;8.33;100.00
11041;BME280;5573;49.592;8.662;2023-04-09T01:32:48;100623.94;;;8.20;100.00
11041;BME280;5573;49.592;8.662;2023-04-09T01:35:18;100623.38;;;8.02;100.00
11041;BME280;5573;49.592;8.662;2023-04-09T01:37:48;100624.09;;;7.99;100.00
11041;BME280;5573;49.592;8.662;2023-04-09T01:40:16;100622.59;;;7.77;100.00
11041;BME280;5573;49.592;8.662;2023-04-09T01:42:44;100625.78;;;7.67;100.00
11041;BME280;5573;49.592;8.662;2023-04-09T01:45:13;100623.88;;;7.67;100.00
11041;BME280;5573;49.592;8.662;2023-04-09T01:47:43;100630.34;;;7.63;100.00
11041;BME280;5573;49.592;8.662;2023-04-09T01:50:12;100629.34;;;7.55;100.00
11041;BME280;5573;49.592;8.662;2023-04-09T01:52:39;100634.91;;;7.46;100.00
11041;BME280;5573;49.592;8.662;2023-04-09T01:55:07;100629.25;;;7.18;100.00
11041;BME280;5573;49.592;8.662;2023-04-09T01:57:35;100629.59;;;7.04;100.00
11041;BME280;5573;49.592;8.662;2023-04-09T02:00:04;100631.59;;;6.95;100.00
11041;BME280;5573;49.592;8.662;2023-04-09T02:02:56;100625.34;;;6.74;100.00
11041;BME280;5573;49.592;8.662;2023-04-09T02:05:28;100623.81;;;6.64;100.00
11041;BME280;5573;49.592;8.662;2023-04-09T02:08:02;100627.25;;;6.40;100.00
11041;BME280;5573;49.592;8.662;2023-04-09T02:10:30;100624.25;;;6.33;100.00
11041;BME280;5573;49.592;8.662;2023-04-09T02:13:03;100623.81;;;6.22;100.00
11041;BME280;5573;49.592;8.662;2023-04-09T02:15:34;100628.41;;;6.09;100.00
11041;BME280;5573;49.592;8.662;2023-04-09T02:18:05;100626.31;;;6.15;100.00
11041;BME280;5573;49.592;8.662;2023-04-09T02:20:47;100625.50;;;6.14;100.00
11041;BME280;5573;49.592;8.662;2023-04-09T02:23:14;100620.56;;;6.07;100.00
11041;BME280;5573;49.592;8.662;2023-04-09T02:25:43;100634.56;;;6.06;100.00
11041;BME280;5573;49.592;8.662;2023-04-09T02:28:11;100602.81;;;5.84;100.00
11041;BME280;5573;49.592;8.662;2023-04-09T02:30:44;100634.28;;;5.99;100.00
11041;BME280;5573;49.592;8.662;2023-04-09T02:33:14;100623.69;;;5.97;100.00
11041;BME280;5573;49.592;8.662;2023-04-09T02:35:41;100627.88;;;5.95;100.00
11041;BME280;5573;49.592;8.662;2023-04-09T02:38:10;100614.38;;;5.89;100.00
11041;BME280;5573;49.592;8.662;2023-04-09T02:40:39;100618.03;;;5.94;100.00
11041;BME280;5573;49.592;8.662;2023-04-09T02:43:07;100627.22;;;5.89;100.00
11041;BME280;5573;49.592;8.662;2023-04-09T02:45:35;100620.97;;;5.88;100.00
11041;BME280;5573;49.592;8.662;2023-04-09T02:48:03;100617.78;;;5.86;100.00
11041;BME280;5573;49.592;8.662;2023-04-09T02:50:35;100618.63;;;5.78;100.00
11041;BME280;5573;49.592;8.662;2023-04-09T02:53:03;100618.28;;;5.80;100.00
11041;BME280;5573;49.592;8.662;2023-04-09T02:55:30;100621.63;;;5.85;100.00
11041;BME280;5573;49.592;8.662;2023-04-09T02:57:58;100618.41;;;5.83;100.00
11041;BME280;5573;49.592;8.662;2023-04-09T03:00:26;100619.69;;;5.86;100.00
11041;BME280;5573;49.592;8.662;2023-04-09T03:02:54;100625.19;;;5.77;100.00
11041;BME280;5573;49.592;8.662;2023-04-09T03:05:23;100622.00;;;5.75;100.00
11041;BME280;5573;49.592;8.662;2023-04-09T03:07:53;100615.41;;;5.76;100.00
11041;BME280;5573;49.592;8.662;2023-04-09T03:10:21;100607.88;;;5.73;100.00
11041;BME280;5573;49.592;8.662;2023-04-09T03:12:49;100618.47;;;5.75;100.00
11041;BME280;5573;49.592;8.662;2023-04-09T03:15:17;100621.72;;;5.68;100.00
11041;BME280;5573;49.592;8.662;2023-04-09T03:17:44;100612.38;;;5.69;100.00
11041;BME280;5573;49.592;8.662;2023-04-09T03:20:12;100610.47;;;5.69;100.00
11041;BME280;5573;49.592;8.662;2023-04-09T03:22:40;100616.25;;;5.68;100.00
11041;BME280;5573;49.592;8.662;2023-04-09T03:25:21;100610.94;;;5.72;100.00
11041;BME280;5573;49.592;8.662;2023-04-09T03:27:52;100604.81;;;5.75;100.00
11041;BME280;5573;49.592;8.662;2023-04-09T03:30:33;100603.69;;;5.76;100.00
11041;BME280;5573;49.592;8.662;2023-04-09T03:33:04;100599.88;;;5.68;100.00
11041;BME280;5573;49.592;8.662;2023-04-09T03:35:40;100598.41;;;5.70;100.00
11041;BME280;5573;49.592;8.662;2023-04-09T03:38:10;100598.88;;;5.73;100.00
11041;BME280;5573;49.592;8.662;2023-04-09T03:40:39;100601.78;;;5.76;100.00
11041;BME280;5573;49.592;8.662;2023-04-09T03:43:07;100600.78;;;5.81;100.00
11041;BME280;5573;49.592;8.662;2023-04-09T03:45:37;100602.34;;;5.90;100.00
11041;BME280;5573;49.592;8.662;2023-04-09T03:48:20;100601.03;;;5.88;100.00
11041;BME280;5573;49.592;8.662;2023-04-09T03:50:48;100596.19;;;5.94;100.00
11041;BME280;5573;49.592;8.662;2023-04-09T03:53:23;100605.34;;;5.98;100.00
11041;BME280;5573;49.592;8.662;2023-04-09T03:55:59;100596.31;;;6.06;100.00
11041;BME280;5573;49.592;8.662;2023-04-09T03:58:28;100597.19;;;6.19;100.00
11041;BME280;5573;49.592;8.662;2023-04-09T04:00:57;100598.38;;;6.30;100.00
11041;BME280;5573;49.592;8.662;2023-04-09T04:03:34;100600.53;;;6.45;100.00
11041;BME280;5573;49.592;8.662;2023-04-09T04:06:37;100598.56;;;6.67;100.00
11041;BME280;5573;49.592;8.662;2023-04-09T04:09:18;100602.31;;;6.62;100.00
11041;BME280;5573;49.592;8.662;2023-04-09T04:11:52;100514.63;;;6.13;100.00
11041;BME280;5573;49.592;8.662;2023-04-09T04:14:24;100604.75;;;6.76;100.00
11041;BME280;5573;49.592;8.662;2023-04-09T04:16:59;100598.63;;;6.79;100.00
11041;BME280;5573;49.592;8.662;2023-04-09T04:19:29;100599.53;;;6.83;100.00
11041;BME280;5573;49.592;8.662;2023-04-09T04:21:58;100598.94;;;6.78;100.00
11041;BME280;5573;49.592;8.662;2023-04-09T04:24:26;100599.81;;;6.69;100.00
11041;BME280;5573;49.592;8.662;2023-04-09T04:26:55;100603.19;;;6.54;100.00
11041;BME280;5573;49.592;8.662;2023-04-09T04:29:29;100609.31;;;6.51;100.00
11041;BME280;5573;49.592;8.662;2023-04-09T04:31:59;100605.47;;;6.31;100.00
11041;BME280;5573;49.592;8.662;2023-04-09T04:34:33;100607.78;;;6.20;100.00
11041;BME280;5573;49.592;8.662;2023-04-09T04:37:08;100603.84;;;6.30;100.00
11041;BME280;5573;49.592;8.662;2023-04-09T04:39:36;100607.78;;;6.20;100.00
11041;BME280;5573;49.592;8.662;2023-04-09T04:42:10;100611.38;;;6.12;100.00
11041;BME280;5573;49.592;8.662;2023-04-09T04:44:38;100610.13;;;6.09;100.00
11041;BME280;5573;49.592;8.662;2023-04-09T04:47:28;100612.22;;;6.04;100.00
11041;BME280;5573;49.592;8.662;2023-04-09T04:49:57;100615.50;;;5.97;100.00
11041;BME280;5573;49.592;8.662;2023-04-09T04:52:25;100614.09;;;5.82;100.00
11041;BME280;5573;49.592;8.662;2023-04-09T04:54:53;100624.19;;;5.82;100.00
11041;BME280;5573;49.592;8.662;2023-04-09T04:57:23;100613.44;;;5.85;100.00
11041;BME280;5573;49.592;8.662;2023-04-09T04:59:52;100614.75;;;5.79;100.00
11041;BME280;5573;49.592;8.662;2023-04-09T05:02:20;100615.25;;;5.73;100.00
11041;BME280;5573;49.592;8.662;2023-04-09T05:05:06;100617.53;;;5.70;100.00
11041;BME280;5573;49.592;8.662;2023-04-09T05:07:40;100618.78;;;5.73;100.00
11041;BME280;5573;49.592;8.662;2023-04-09T05:10:08;100624.91;;;5.70;100.00
11041;BME280;5573;49.592;8.662;2023-04-09T05:12:40;100621.03;;;5.80;100.00
11041;BME280;5573;49.592;8.662;2023-04-09T05:15:10;100621.19;;;5.75;100.00
11041;BME280;5573;49.592;8.662;2023-04-09T05:17:41;100623.59;;;5.76;100.00
11041;BME280;5573;49.592;8.662;2023-04-09T05:20:10;100620.88;;;5.76;100.00
11041;BME280;5573;49.592;8.662;2023-04-09T05:22:47;100623.88;;;5.83;100.00
11041;BME280;5573;49.592;8.662;2023-04-09T05:25:15;100630.75;;;5.89;100.00
11041;BME280;5573;49.592;8.662;2023-04-09T05:27:44;100624.81;;;5.96;100.00
11041;BME280;5573;49.592;8.662;2023-04-09T05:30:12;100625.50;;;6.14;100.00
11041;BME280;5573;49.592;8.662;2023-04-09T05:32:40;100629.91;;;6.27;100.00
11041;BME280;5573;49.592;8.662;2023-04-09T05:35:08;100628.50;;;6.21;100.00
11041;BME280;5573;49.592;8.662;2023-04-09T05:37:40;100624.59;;;6.31;100.00
11041;BME280;5573;49.592;8.662;2023-04-09T05:40:08;100633.41;;;6.37;100.00
11041;BME280;5573;49.592;8.662;2023-04-09T05:42:36;100629.97;;;6.40;100.00
11041;BME280;5573;49.592;8.662;2023-04-09T05:45:12;100621.16;;;6.55;100.00
11041;BME280;5573;49.592;8.662;2023-04-09T05:47:46;100621.53;;;6.54;100.00
11041;BME280;5573;49.592;8.662;2023-04-09T05:50:21;100628.97;;;6.65;100.00
11041;BME280;5573;49.592;8.662;2023-04-09T05:52:52;100630.88;;;6.86;100.00
11041;BME280;5573;49.592;8.662;2023-04-09T05:55:25;100625.56;;;6.89;100.00
11041;BME280;5573;49.592;8.662;2023-04-09T05:57:57;100635.75;;;6.80;100.00
11041;BME280;5573;49.592;8.662;2023-04-09T06:00:27;100628.59;;;6.88;100.00
11041;BME280;5573;49.592;8.662;2023-04-09T06:02:54;100637.69;;;7.13;100.00
11041;BME280;5573;49.592;8.662;2023-04-09T06:05:22;100643.31;;;7.29;100.00
11041;BME280;5573;49.592;8.662;2023-04-09T06:07:50;100637.88;;;7.53;100.00
11041;BME280;5573;49.592;8.662;2023-04-09T06:10:18;100631.63;;;7.65;100.00
11041;BME280;5573;49.592;8.662;2023-04-09T06:12:47;100641.19;;;7.71;100.00
11041;BME280;5573;49.592;8.662;2023-04-09T06:15:15;100652.84;;;7.81;100.00
11041;BME280;5573;49.592;8.662;2023-04-09T06:17:45;100644.97;;;8.04;100.00
11041;BME280;5573;49.592;8.662;2023-04-09T06:20:13;100644.59;;;8.18;100.00
11041;BME280;5573;49.592;8.662;2023-04-09T06:22:40;100641.06;;;8.17;100.00
11041;BME280;5573;49.592;8.662;2023-04-09T06:25:08;100645.16;;;8.35;100.00
11041;BME280;5573;49.592;8.662;2023-04-09T06:27:36;100641.59;;;8.47;100.00
11041;BME280;5573;49.592;8.662;2023-04-09T06:30:05;100641.38;;;8.52;100.00
11041;BME280;5573;49.592;8.662;2023-04-09T06:32:33;100648.75;;;8.64;100.00
11041;BME280;5573;49.592;8.662;2023-04-09T06:35:20;100648.25;;;8.74;100.00
11041;BME280;5573;49.592;8.662;2023-04-09T06:37:48;100640.13;;;8.78;100.00
11041;BME280;5573;49.592;8.662;2023-04-09T06:40:15;100646.19;;;8.84;100.00
11041;BME280;5573;49.592;8.662;2023-04-09T06:42:46;100649.81;;;8.88;100.00
11041;BME280;5573;49.592;8.662;2023-04-09T06:45:20;100651.97;;;9.10;100.00
11041;BME280;5573;49.592;8.662;2023-04-09T06:47:48;100657.69;;;9.18;100.00
11041;BME280;5573;49.592;8.662;2023-04-09T06:50:16;100657.41;;;9.23;99.42
11041;BME280;5573;49.592;8.662;2023-04-09T06:52:45;100662.13;;;9.38;100.00
11041;BME280;5573;49.592;8.662;2023-04-09T06:55:13;100659.66;;;9.33;100.00
11041;BME280;5573;49.592;8.662;2023-04-09T06:57:41;100638.97;;;9.23;98.92
11041;BME280;5573;49.592;8.662;2023-04-09T07:00:09;100656.09;;;9.48;98.90
11041;BME280;5573;49.592;8.662;2023-04-09T07:02:38;100657.72;;;9.49;98.82
11041;BME280;5573;49.592;8.662;2023-04-09T07:05:06;100651.78;;;9.63;99.90
11041;BME280;5573;49.592;8.662;2023-04-09T07:07:34;100655.34;;;9.64;96.21
11041;BME280;5573;49.592;8.662;2023-04-09T07:10:04;100552.44;;;8.82;97.25
11041;BME280;5573;49.592;8.662;2023-04-09T07:12:33;100655.84;;;9.85;97.40
11041;BME280;5573;49.592;8.662;2023-04-09T07:15:03;100656.91;;;9.96;94.92
11041;BME280;5573;49.592;8.662;2023-04-09T07:17:31;100652.56;;;9.95;92.06
11041;BME280;5573;49.592;8.662;2023-04-09T07:19:59;100641.03;;;9.90;90.24
11041;BME280;5573;49.592;8.662;2023-04-09T07:22:28;100666.66;;;9.46;93.04
11041;BME280;5573;49.592;8.662;2023-04-09T07:24:56;100667.03;;;9.61;93.11
11041;BME280;5573;49.592;8.662;2023-04-09T07:27:26;100663.81;;;10.06;93.54
11041;BME280;5573;49.592;8.662;2023-04-09T07:29:54;100661.91;;;10.26;90.43
11041;BME280;5573;49.592;8.662;2023-04-09T07:32:22;100662.94;;;10.02;89.60
11041;BME280;5573;49.592;8.662;2023-04-09T07:34:51;100668.47;;;10.37;88.47
11041;BME280;5573;49.592;8.662;2023-04-09T07:37:19;100672.81;;;10.38;84.68
11041;BME280;5573;49.592;8.662;2023-04-09T07:39:48;100665.00;;;10.41;85.65
11041;BME280;5573;49.592;8.662;2023-04-09T07:42:16;100656.94;;;10.32;86.70
11041;BME280;5573;49.592;8.662;2023-04-09T07:44:45;100666.72;;;10.65;83.91
11041;BME280;5573;49.592;8.662;2023-04-09T07:47:13;100666.53;;;10.77;81.31
11041;BME280;5573;49.592;8.662;2023-04-09T07:49:41;100669.31;;;11.39;79.38
11041;BME280;5573;49.592;8.662;2023-04-09T07:52:09;100675.13;;;11.34;75.22
11041;BME280;5573;49.592;8.662;2023-04-09T07:54:37;100670.91;;;11.86;73.70
11041;BME280;5573;49.592;8.662;2023-04-09T07:57:05;100644.84;;;12.07;70.37
11041;BME280;5573;49.592;8.662;2023-04-09T07:59:33;100684.00;;;12.43;67.88
11041;BME280;5573;49.592;8.662;2023-04-09T08:02:03;100678.19;;;12.25;69.25
11041;BME280;5573;49.592;8.662;2023-04-09T08:04:31;100677.41;;;12.24;70.43
11041;BME280;5573;49.592;8.662;2023-04-09T08:06:59;100679.53;;;12.34;69.54
11041;BME280;5573;49.592;8.662;2023-04-09T08:09:27;100686.72;;;12.12;69.05
11041;BME280;5573;49.592;8.662;2023-04-09T08:11:54;100685.59;;;12.17;69.56
11041;BME280;5573;49.592;8.662;2023-04-09T08:14:22;100686.13;;;12.26;71.48
11041;BME280;5573;49.592;8.662;2023-04-09T08:16:50;100687.13;;;12.41;67.92
11041;BME280;5573;49.592;8.662;2023-04-09T08:19:20;100684.75;;;12.70;66.75
11041;BME280;5573;49.592;8.662;2023-04-09T08:21:47;100689.03;;;12.37;68.50
11041;BME280;5573;49.592;8.662;2023-04-09T08:24:15;100693.91;;;12.47;68.08
11041;BME280;5573;49.592;8.662;2023-04-09T08:26:43;100684.97;;;12.57;67.31
11041;BME280;5573;49.592;8.662;2023-04-09T08:29:11;100690.41;;;12.50;67.18
11041;BME280;5573;49.592;8.662;2023-04-09T08:31:40;100689.72;;;12.57;66.94
11041;BME280;5573;49.592;8.662;2023-04-09T08:34:08;100699.97;;;12.30;66.98
11041;BME280;5573;49.592;8.662;2023-04-09T08:36:37;100698.78;;;12.31;64.15
11041;BME280;5573;49.592;8.662;2023-04-09T08:39:05;100700.13;;;12.14;62.87
11041;BME280;5573;49.592;8.662;2023-04-09T08:41:34;100699.38;;;12.17;63.53
11041;BME280;5573;49.592;8.662;2023-04-09T08:44:05;100698.00;;;12.30;62.46
11041;BME280;5573;49.592;8.662;2023-04-09T08:46:34;100702.38;;;12.31;62.50
11041;BME280;5573;49.592;8.662;2023-04-09T08:49:02;100700.84;;;12.37;61.27
11041;BME280;5573;49.592;8.662;2023-04-09T08:51:30;100696.72;;;12.51;63.96
11041;BME280;5573;49.592;8.662;2023-04-09T08:54:00;100696.00;;;12.88;60.85
11041;BME280;5573;49.592;8.662;2023-04-09T08:56:31;100702.47;;;12.99;61.21
11041;BME280;5573;49.592;8.662;2023-04-09T08:58:58;100703.84;;;12.82;60.28
11041;BME280;5573;49.592;8.662;2023-04-09T09:01:27;100708.31;;;13.28;60.80
11041;BME280;5573;49.592;8.662;2023-04-09T09:03:57;100712.16;;;13.19;57.88
11041;BME280;5573;49.592;8.662;2023-04-09T09:06:26;100713.28;;;13.11;57.69
11041;BME280;5573;49.592;8.662;2023-04-09T09:09:02;100713.34;;;13.52;55.81
11041;BME280;5573;49.592;8.662;2023-04-09T09:11:31;100700.00;;;14.10;55.66
11041;BME280;5573;49.592;8.662;2023-04-09T09:14:00;100704.50;;;14.29;53.70
11041;BME280;5573;49.592;8.662;2023-04-09T09:16:29;100700.59;;;13.81;54.88
11041;BME280;5573;49.592;8.662;2023-04-09T09:18:59;100700.41;;;13.60;54.60
11041;BME280;5573;49.592;8.662;2023-04-09T09:21:28;100701.19;;;13.60;55.94
11041;BME280;5573;49.592;8.662;2023-04-09T09:23:56;100700.16;;;13.38;56.14
11041;BME280;5573;49.592;8.662;2023-04-09T09:26:27;100687.13;;;13.80;53.22
11041;BME280;5573;49.592;8.662;2023-04-09T09:28:56;100690.06;;;14.60;51.91
11041;BME280;5573;49.592;8.662;2023-04-09T09:31:25;100661.63;;;14.63;52.80
11041;BME280;5573;49.592;8.662;2023-04-09T09:33:53;100691.00;;;14.90;53.10
11041;BME280;5573;49.592;8.662;2023-04-09T09:36:31;100691.75;;;14.79;53.23
11041;BME280;5573;49.592;8.662;2023-04-09T09:39:00;100689.06;;;14.31;51.32
11041;BME280;5573;49.592;8.662;2023-04-09T09:41:37;100680.81;;;14.35;48.75
11041;BME280;5573;49.592;8.662;2023-04-09T09:44:05;100687.53;;;14.37;52.02
11041;BME280;5573;49.592;8.662;2023-04-09T09:46:35;100690.84;;;14.57;49.67
11041;BME280;5573;49.592;8.662;2023-04-09T09:49:03;100686.72;;;14.30;50.19
11041;BME280;5573;49.592;8.662;2023-04-09T09:51:32;100674.81;;;14.22;49.95
11041;BME280;5573;49.592;8.662;2023-04-09T09:54:02;100686.28;;;14.24;49.24
11041;BME280;5573;49.592;8.662;2023-04-09T09:56:33;100683.53;;;14.31;49.88
11041;BME280;5573;49.592;8.662;2023-04-09T09:59:09;100685.09;;;14.25;51.06
11041;BME280;5573;49.592;8.662;2023-04-09T10:01:39;100686.66;;;14.22;49.45
11041;BME280;5573;49.592;8.662;2023-04-09T10:04:12;100680.25;;;14.11;48.77
11041;BME280;5573;49.592;8.662;2023-04-09T10:06:42;100681.78;;;14.05;50.39
11041;BME280;5573;49.592;8.662;2023-04-09T10:09:10;100676.25;;;14.05;49.33
11041;BME280;5573;49.592;8.662;2023-04-09T10:11:39;100677.56;;;13.70;51.86
11041;BME280;5573;49.592;8.662;2023-04-09T10:14:12;100681.91;;;13.71;52.06
11041;BME280;5573;49.592;8.662;2023-04-09T10:16:41;100673.22;;;13.69;51.74
11041;BME280;5573;49.592;8.662;2023-04-09T10:19:08;100675.88;;;14.07;49.86
11041;BME280;5573;49.592;8.662;2023-04-09T10:21:44;100677.13;;;14.16;48.94
11041;BME280;5573;49.592;8.662;2023-04-09T10:24:14;100674.09;;;14.39;50.75
11041;BME280;5573;49.592;8.662;2023-04-09T10:26:43;100677.81;;;14.58;48.65
11041;BME280;5573;49.592;8.662;2023-04-09T10:29:14;100670.34;;;14.66;48.68
11041;BME280;5573;49.592;8.662;2023-04-09T10:31:47;100669.22;;;14.84;47.86
11041;BME280;5573;49.592;8.662;2023-04-09T10:34:16;100658.22;;;15.06;47.09
11041;BME280;5573;49.592;8.662;2023-04-09T10:36:49;100669.19;;;14.77;46.64
11041;BME280;5573;49.592;8.662;2023-04-09T10:39:17;100663.69;;;14.84;46.82
11041;BME280;5573;49.592;8.662;2023-04-09T10:41:45;100662.91;;;14.91;46.61
11041;BME280;5573;49.592;8.662;2023-04-09T10:44:22;100659.69;;;14.75;48.07
11041;BME280;5573;49.592;8.662;2023-04-09T10:46:52;100660.13;;;14.88;46.10
11041;BME280;5573;49.592;8.662;2023-04-09T10:49:21;100663.31;;;14.90;46.54
11041;BME280;5573;49.592;8.662;2023-04-09T10:51:50;100624.56;;;14.97;44.05
11041;BME280;5573;49.592;8.662;2023-04-09T10:54:38;100648.38;;;15.27;45.73
11041;BME280;5573;49.592;8.662;2023-04-09T10:57:10;100651.50;;;15.11;45.90
11041;BME280;5573;49.592;8.662;2023-04-09T10:59:41;100644.41;;;15.20;45.39
11041;BME280;5573;49.592;8.662;2023-04-09T11:02:47;100647.53;;;15.08;45.86
11041;BME280;5573;49.592;8.662;2023-04-09T11:05:26;100647.06;;;14.81;46.90
11041;BME280;5573;49.592;8.662;2023-04-09T11:07:58;100645.22;;;14.30;46.28
11041;BME280;5573;49.592;8.662;2023-04-09T11:10:30;100640.06;;;14.35;46.98
11041;BME280;5573;49.592;8.662;2023-04-09T11:12:58;100648.13;;;14.58;48.13
11041;BME280;5573;49.592;8.662;2023-04-09T11:15:27;100644.97;;;14.60;47.08
11041;BME280;5573;49.592;8.662;2023-04-09T11:17:55;100644.19;;;14.59;47.34
11041;BME280;5573;49.592;8.662;2023-04-09T11:20:25;100640.25;;;14.64;47.17
11041;BME280;5573;49.592;8.662;2023-04-09T11:22:54;100630.53;;;15.17;46.49
11041;BME280;5573;49.592;8.662;2023-04-09T11:25:23;100632.53;;;15.59;44.24
11041;BME280;5573;49.592;8.662;2023-04-09T11:27:52;100632.56;;;15.56;44.89
11041;BME280;5573;49.592;8.662;2023-04-09T11:30:20;100614.31;;;15.51;43.99
11041;BME280;5573;49.592;8.662;2023-04-09T11:32:50;100629.38;;;15.93;43.85
11041;BME280;5573;49.592;8.662;2023-04-09T11:35:19;100631.78;;;15.80;43.85
11041;BME280;5573;49.592;8.662;2023-04-09T11:37:48;100618.28;;;15.47;44.55
11041;BME280;5573;49.592;8.662;2023-04-09T11:40:19;100635.34;;;15.84;44.00
11041;BME280;5573;49.592;8.662;2023-04-09T11:42:48;100630.97;;;15.91;44.33
11041;BME280;5573;49.592;8.662;2023-04-09T11:45:17;100621.88;;;15.69;41.66
11041;BME280;5573;49.592;8.662;2023-04-09T11:47:45;100622.66;;;15.69;43.46
11041;BME280;5573;49.592;8.662;2023-04-09T11:50:15;100627.78;;;15.31;43.95
11041;BME280;5573;49.592;8.662;2023-04-09T11:52:43;100631.38;;;15.60;44.45
11041;BME280;5573;49.592;8.662;2023-04-09T11:55:11;100628.56;;;15.39;43.31
11041;BME280;5573;49.592;8.662;2023-04-09T11:57:50;100631.31;;;15.21;43.39
11041;BME280;5573;49.592;8.662;2023-04-09T12:00:18;100632.91;;;15.15;43.12
11041;BME280;5573;49.592;8.662;2023-04-09T12:02:47;100625.38;;;15.26;42.98
11041;BME280;5573;49.592;8.662;2023-04-09T12:05:22;100625.34;;;14.97;43.99
11041;BME280;5573;49.592;8.662;2023-04-09T12:07:50;100632.06;;;15.07;42.93
11041;BME280;5573;49.592;8.662;2023-04-09T12:10:25;100606.38;;;15.28;42.72
11041;BME280;5573;49.592;8.662;2023-04-09T12:12:53;100620.28;;;15.93;42.24
11041;BME280;5573;49.592;8.662;2023-04-09T12:15:23;100630.56;;;15.99;41.48
11041;BME280;5573;49.592;8.662;2023-04-09T12:17:54;100628.59;;;16.03;42.83
11041;BME280;5573;49.592;8.662;2023-04-09T12:20:31;100630.19;;;16.01;41.34
11041;BME280;5573;49.592;8.662;2023-04-09T12:23:03;100621.03;;;16.04;41.51
11041;BME280;5573;49.592;8.662;2023-04-09T12:25:32;100639.22;;;16.37;41.32
11041;BME280;5573;49.592;8.662;2023-04-09T12:28:01;100629.56;;;16.81;40.69
11041;BME280;5573;49.592;8.662;2023-04-09T12:30:29;100632.19;;;17.06;38.87
11041;BME280;5573;49.592;8.662;2023-04-09T12:32:57;100619.75;;;17.29;37.42
11041;BME280;5573;49.592;8.662;2023-04-09T12:35:25;100613.38;;;17.84;35.53
11041;BME280;5573;49.592;8.662;2023-04-09T12:37:55;100601.09;;;18.16;36.90
11041;BME280;5573;49.592;8.662;2023-04-09T12:40:23;100609.47;;;18.51;38.68
11041;BME280;5573;49.592;8.662;2023-04-09T12:42:50;100602.72;;;18.82;35.07
11041;BME280;5573;49.592;8.662;2023-04-09T12:45:19;100595.59;;;18.78;35.44
11041;BME280;5573;49.592;8.662;2023-04-09T12:47:47;100593.91;;;18.19;38.23
11041;BME280;5573;49.592;8.662;2023-04-09T12:50:14;100596.94;;;18.66;40.16
11041;BME280;5573;49.592;8.662;2023-04-09T12:52:43;100598.00;;;18.45;38.97
11041;BME280;5573;49.592;8.662;2023-04-09T12:55:12;100596.50;;;18.37;39.07
11041;BME280;5573;49.592;8.662;2023-04-09T12:57:42;100539.41;;;18.52;37.33
11041;BME280;5573;49.592;8.662;2023-04-09T13:00:11;100583.13;;;18.89;35.82
11041;BME280;5573;49.592;8.662;2023-04-09T13:02:39;100583.06;;;18.62;35.55
11041;BME280;5573;49.592;8.662;2023-04-09T13:05:08;100577.59;;;18.21;36.55
11041;BME280;5573;49.592;8.662;2023-04-09T13:07:36;100583.81;;;18.66;37.83
11041;BME280;5573;49.592;8.662;2023-04-09T13:10:05;100572.91;;;18.11;36.67
11041;BME280;5573;49.592;8.662;2023-04-09T13:12:34;100575.66;;;18.18;35.02
11041;BME280;5573;49.592;8.662;2023-04-09T13:15:02;100569.38;;;18.06;35.65
11041;BME280;5573;49.592;8.662;2023-04-09T13:17:30;100562.88;;;17.79;39.65
11041;BME280;5573;49.592;8.662;2023-04-09T13:19:58;100567.13;;;17.53;36.31